createdAt,value
2018-03-27T00:00:04.881Z,47
2018-03-27T00:15:05.255Z,45
2018-03-27T00:30:04.855Z,46
2018-03-27T00:45:04.326Z,46
2018-03-27T01:00:04.876Z,45
2018-03-27T01:15:05.240Z,46
2018-03-27T01:30:04.788Z,44
2018-03-27T01:45:04.652Z,45
2018-03-27T02:00:04.609Z,45
2018-03-27T02:15:05.107Z,45
2018-03-27T02:30:04.722Z,45
2018-03-27T02:45:05.126Z,46
2018-03-27T03:00:05.000Z,45
2018-03-27T03:15:04.887Z,45
2018-03-27T03:30:04.563Z,46
2018-03-27T03:45:04.541Z,45
2018-03-27T04:00:04.473Z,45
2018-03-27T04:15:04.837Z,46
2018-03-27T04:30:05.129Z,48
2018-03-27T04:45:05.104Z,47
2018-03-27T05:00:05.060Z,47
2018-03-27T05:15:04.488Z,48
2018-03-27T05:30:05.641Z,52
2018-03-27T05:45:05.234Z,52
2018-03-27T06:00:04.709Z,52
2018-03-27T06:15:05.183Z,54
2018-03-27T06:30:04.332Z,50
2018-03-27T06:45:04.747Z,49
2018-03-27T07:00:04.755Z,49
2018-03-27T07:15:04.719Z,49
2018-03-27T07:30:04.591Z,48
2018-03-27T07:45:04.991Z,48
2018-03-27T08:00:04.402Z,48
2018-03-27T08:15:04.304Z,52
2018-03-27T08:30:04.622Z,51
2018-03-27T08:45:05.027Z,61
2018-03-27T09:00:05.005Z,50
2018-03-27T09:15:04.906Z,50
2018-03-27T09:30:04.606Z,48
2018-03-27T09:45:04.507Z,47
2018-03-27T10:00:04.968Z,49
2018-03-27T10:15:04.913Z,48
2018-03-27T10:30:04.573Z,47
2018-03-27T10:45:04.966Z,47
2018-03-27T11:00:04.937Z,46
2018-03-27T11:15:04.859Z,46
2018-03-27T11:30:04.517Z,47
2018-03-27T11:45:04.526Z,46
2018-03-27T12:00:04.469Z,46
2018-03-27T12:15:04.874Z,46
2018-03-27T12:30:05.001Z,47
2018-03-27T12:45:04.477Z,46
2018-03-27T13:00:04.403Z,46
2018-03-27T13:15:04.888Z,54
2018-03-27T13:30:05.608Z,49
2018-03-27T13:45:05.005Z,47
2018-03-27T14:00:04.646Z,47
2018-03-27T14:15:05.142Z,47
2018-03-27T14:30:04.400Z,44
2018-03-27T14:45:05.091Z,46
2018-03-27T15:00:05.151Z,46
2018-03-27T15:15:05.472Z,47
2018-03-27T15:30:05.367Z,49
2018-03-27T15:45:04.340Z,47
2018-03-27T16:00:04.850Z,47
2018-03-27T16:15:04.772Z,47
2018-03-27T16:30:04.989Z,46
2018-03-27T16:45:04.939Z,46
2018-03-27T17:00:04.366Z,47
2018-03-27T17:15:04.511Z,48
2018-03-27T17:30:04.702Z,47
2018-03-27T17:45:04.687Z,48
2018-03-27T18:00:04.700Z,46
2018-03-27T18:15:05.456Z,46
2018-03-27T18:30:04.624Z,46
2018-03-27T18:45:04.722Z,45
2018-03-27T19:00:05.179Z,45
2018-03-27T19:15:05.248Z,51
2018-03-27T19:30:04.913Z,45
2018-03-27T19:45:04.506Z,44
2018-03-27T20:00:04.800Z,44
2018-03-27T20:15:05.219Z,44
2018-03-27T20:30:05.005Z,44
2018-03-27T20:45:05.148Z,44
2018-03-27T21:00:04.640Z,44
2018-03-27T21:15:05.160Z,44
2018-03-27T21:30:05.265Z,44
2018-03-27T21:45:05.374Z,44
2018-03-27T22:00:05.546Z,44
2018-03-27T22:15:04.568Z,44
2018-03-27T22:30:05.313Z,45
2018-03-27T22:45:04.692Z,43
2018-03-27T23:00:05.088Z,44
2018-03-27T23:15:05.230Z,43
2018-03-27T23:30:05.077Z,44
2018-03-27T23:45:05.191Z,44
